Time;durP1;ratioP1;P1;durP2;ratioP2;P2;SDS_P1;SDS_P2;PMS_P1;PMS_P2;Temp;Humidity;BMP_temperature;BMP_pressure;BME280_temperature;BME280_humidity;BME280_pressure;Samples;Min_cycle;Max_cycle;Signal;HPM_P1;HPM_P2
2023/02/19 00:02:15;;;;;;;6.50;5.70;;;8.20;99.90;;;;;;5031842;28;20206;-50
2023/02/19 00:04:42;;;;;;;5.80;5.03;;;8.20;99.90;;;;;;5032351;28;20648;-50
2023/02/19 00:07:09;;;;;;;6.87;5.80;;;8.20;99.90;;;;;;5036528;28;20274;-51
2023/02/19 00:09:36;;;;;;;5.83;5.33;;;8.30;99.90;;;;;;5031748;28;20250;-50
2023/02/19 00:12:03;;;;;;;6.27;4.93;;;8.20;99.90;;;;;;5033129;28;20697;-51
2023/02/19 00:14:31;;;;;;;6.00;5.40;;;8.20;99.90;;;;;;5029149;28;20269;-52
2023/02/19 00:16:58;;;;;;;7.23;6.07;;;8.20;99.90;;;;;;5038008;28;20217;-50
2023/02/19 00:19:25;;;;;;;7.60;5.50;;;8.30;99.90;;;;;;5040109;28;20202;-50
2023/02/19 00:21:53;;;;;;;8.07;6.07;;;8.20;99.90;;;;;;5034295;28;20208;-50
2023/02/19 00:24:20;;;;;;;5.20;4.70;;;8.20;99.90;;;;;;5027812;28;20220;-50
2023/02/19 00:26:48;;;;;;;6.70;4.80;;;8.20;99.90;;;;;;5047464;28;20196;-51
2023/02/19 00:29:16;;;;;;;7.17;5.50;;;8.20;99.90;;;;;;5031090;28;20228;-50
2023/02/19 00:31:45;;;;;;;5.47;4.97;;;8.10;99.90;;;;;;5038274;28;20252;-50
2023/02/19 00:34:13;;;;;;;5.13;4.50;;;8.20;99.90;;;;;;5030952;28;20644;-51
2023/02/19 00:36:41;;;;;;;5.73;5.20;;;8.20;99.90;;;;;;5029707;28;20225;-51
2023/02/19 00:39:11;;;;;;;5.80;5.20;;;8.30;99.90;;;;;;5030201;28;20685;-50
2023/02/19 00:41:38;;;;;;;6.33;4.43;;;8.30;99.90;;;;;;5038966;28;20204;-50
2023/02/19 00:44:07;;;;;;;5.63;5.13;;;8.30;99.90;;;;;;5038053;28;20228;-49
2023/02/19 00:46:36;;;;;;;5.70;5.13;;;8.30;99.90;;;;;;5034476;28;20192;-52
2023/02/19 00:49:05;;;;;;;4.93;4.53;;;8.40;99.90;;;;;;5034797;28;20650;-50
2023/02/19 00:51:35;;;;;;;8.07;4.40;;;8.40;99.90;;;;;;5035703;28;20202;-51
2023/02/19 00:54:02;;;;;;;4.63;4.33;;;8.50;99.90;;;;;;5042609;28;20230;-51
2023/02/19 00:56:29;;;;;;;3.97;3.57;;;8.50;99.90;;;;;;5042845;28;21050;-51
2023/02/19 00:58:56;;;;;;;4.07;3.67;;;8.40;99.90;;;;;;5041709;28;20203;-51
2023/02/19 01:01:23;;;;;;;3.07;2.87;;;8.40;99.90;;;;;;5034581;28;20326;-50
2023/02/19 01:03:50;;;;;;;3.90;3.57;;;8.50;99.90;;;;;;5033972;28;20207;-51
2023/02/19 01:06:20;;;;;;;4.43;3.73;;;8.40;99.90;;;;;;5035492;28;20200;-50
2023/02/19 01:08:48;;;;;;;4.70;3.70;;;8.50;99.90;;;;;;5041185;28;20203;-50
2023/02/19 01:11:16;;;;;;;3.53;3.23;;;8.60;99.90;;;;;;5039657;28;20248;-50
2023/02/19 01:13:43;;;;;;;3.57;3.37;;;8.60;99.90;;;;;;5034595;28;20256;-51
2023/02/19 01:16:14;;;;;;;3.60;3.37;;;8.60;99.90;;;;;;5037973;28;20220;-52
2023/02/19 01:18:41;;;;;;;5.57;4.23;;;8.60;99.90;;;;;;5034052;28;20736;-51
2023/02/19 01:21:10;;;;;;;8.50;4.27;;;8.60;99.90;;;;;;5033867;28;20216;-50
2023/02/19 01:23:39;;;;;;;5.60;4.50;;;8.50;99.90;;;;;;5041094;28;20200;-50
2023/02/19 01:26:07;;;;;;;4.50;4.17;;;8.50;99.90;;;;;;5032035;28;20203;-51
2023/02/19 01:28:34;;;;;;;4.30;4.00;;;8.40;99.90;;;;;;5036837;28;20258;-50
2023/02/19 01:31:02;;;;;;;5.67;3.57;;;8.40;99.90;;;;;;5043021;28;20197;-51
2023/02/19 01:33:29;;;;;;;2.67;2.47;;;8.30;99.90;;;;;;5033048;28;20197;-51
2023/02/19 01:35:56;;;;;;;3.60;3.30;;;8.20;99.90;;;;;;5034531;28;20223;-51
2023/02/19 01:38:23;;;;;;;3.97;3.67;;;8.20;99.90;;;;;;5041125;28;20200;-50
2023/02/19 01:40:56;;;;;;;4.27;3.87;;;8.10;99.90;;;;;;5046275;28;20230;-51
2023/02/19 01:43:23;;;;;;;4.90;4.40;;;8.10;99.90;;;;;;5035489;28;20571;-50
2023/02/19 01:45:50;;;;;;;5.20;4.70;;;8.10;99.90;;;;;;5034450;28;20246;-50
2023/02/19 01:48:20;;;;;;;5.90;4.60;;;8.00;99.90;;;;;;5040338;28;20793;-50
2023/02/19 01:50:52;;;;;;;5.23;4.60;;;8.00;99.90;;;;;;5033195;28;20729;-50
2023/02/19 01:53:22;;;;;;;5.10;4.70;;;7.90;99.90;;;;;;5049083;28;20200;-51
2023/02/19 01:55:53;;;;;;;5.73;3.67;;;7.90;99.90;;;;;;5053929;28;20237;-50
2023/02/19 01:58:23;;;;;;;4.00;3.70;;;7.80;99.90;;;;;;5054324;28;20611;-50
2023/02/19 02:00:50;;;;;;;4.53;4.13;;;7.70;99.90;;;;;;5053061;28;20203;-50
2023/02/19 02:03:18;;;;;;;4.97;4.50;;;7.60;99.90;;;;;;5031671;28;20200;-51
2023/02/19 02:05:51;;;;;;;6.83;5.40;;;7.60;99.90;;;;;;5030857;28;20224;-51
2023/02/19 02:11:04;;;;;;;4.37;3.97;;;7.70;99.90;;;;;;5035141;28;20203;-51
2023/02/19 02:13:33;;;;;;;4.40;4.00;;;7.60;99.90;;;;;;5032888;28;20246;-51
2023/02/19 02:16:11;;;;;;;5.97;5.20;;;7.50;99.90;;;;;;5026496;28;20224;-50
2023/02/19 02:18:49;;;;;;;7.83;5.00;;;7.50;99.90;;;;;;5041249;28;20208;-51
2023/02/19 02:21:45;;;;;;;5.87;5.37;;;7.40;99.90;;;;;;5046056;28;20685;-50
2023/02/19 02:24:41;;;;;;;4.70;4.30;;;7.40;99.90;;;;;;5035782;28;20213;-50
2023/02/19 02:27:27;;;;;;;3.97;3.67;;;7.40;99.90;;;;;;5026968;28;20194;-50
2023/02/19 02:30:14;;;;;;;3.20;2.93;;;7.40;99.90;;;;;;5045607;28;20200;-49
2023/02/19 02:32:52;;;;;;;3.60;3.23;;;7.40;99.90;;;;;;5037949;28;20628;-51
2023/02/19 02:35:22;;;;;;;4.17;3.77;;;7.30;99.90;;;;;;5041443;28;20227;-50
2023/02/19 02:37:51;;;;;;;4.53;4.00;;;7.20;99.90;;;;;;5031498;28;20218;-50
2023/02/19 02:40:19;;;;;;;3.83;3.53;;;7.10;99.90;;;;;;5028462;28;20228;-50
2023/02/19 02:42:46;;;;;;;4.23;3.67;;;7.00;99.90;;;;;;5043572;28;20661;-51
2023/02/19 02:45:36;;;;;;;4.33;3.93;;;6.90;99.90;;;;;;5049314;28;20228;-50
2023/02/19 02:48:11;;;;;;;4.30;3.83;;;6.80;99.90;;;;;;5028956;28;20193;-50
2023/02/19 02:50:43;;;;;;;8.37;4.77;;;6.70;99.90;;;;;;5042439;28;20265;-50
2023/02/19 02:56:00;;;;;;;5.37;3.93;;;6.60;99.90;;;;;;5026427;28;20313;-50
2023/02/19 02:58:29;;;;;;;4.10;3.67;;;6.50;99.90;;;;;;5039648;28;20208;-50
2023/02/19 03:03:49;;;;;;;5.27;4.10;;;6.40;99.90;;;;;;5043588;28;20211;-50
2023/02/19 03:06:19;;;;;;;4.70;3.73;;;6.40;99.90;;;;;;5033210;28;20200;-50
2023/02/19 03:08:51;;;;;;;4.67;4.37;;;6.40;99.90;;;;;;5040632;28;20205;-50
2023/02/19 03:19:50;;;;;;;3.80;3.20;;;6.30;99.90;;;;;;5041002;28;20262;-50
2023/02/19 03:22:22;;;;;;;3.43;3.13;;;6.30;99.90;;;;;;5052869;28;20265;-50
2023/02/19 03:27:40;;;;;;;3.70;2.77;;;6.40;99.90;;;;;;5052778;28;20218;-51
2023/02/19 03:30:12;;;;;;;4.93;3.13;;;6.50;99.90;;;;;;5037681;28;20668;-50
2023/02/19 03:32:46;;;;;;;3.73;3.37;;;6.70;99.90;;;;;;5041855;28;20252;-50
2023/02/19 03:35:17;;;;;;;8.23;3.40;;;6.80;99.90;;;;;;5052191;28;20241;-50
2023/02/19 03:37:47;;;;;;;3.07;2.87;;;6.90;99.90;;;;;;5052413;28;20250;-50
2023/02/19 03:40:15;;;;;;;3.50;3.20;;;6.90;99.90;;;;;;5052683;28;20213;-51
2023/02/19 03:42:49;;;;;;;2.40;2.30;;;6.90;99.90;;;;;;5046001;28;20207;-50
2023/02/19 03:45:29;;;;;;;3.30;3.00;;;6.90;99.90;;;;;;5035755;28;20224;-50
2023/02/19 03:48:07;;;;;;;7.10;3.07;;;6.90;99.90;;;;;;5043545;28;20610;-50
2023/02/19 03:50:42;;;;;;;6.43;3.30;;;6.90;99.90;;;;;;5051706;28;20212;-52
2023/02/19 03:53:14;;;;;;;2.00;1.83;;;6.90;99.90;;;;;;5040543;28;20199;-51
2023/02/19 03:55:51;;;;;;;2.70;2.50;;;7.00;99.90;;;;;;5038640;28;20247;-51
2023/02/19 03:58:23;;;;;;;3.00;2.80;;;7.00;99.90;;;;;;5038252;28;20223;-50
2023/02/19 04:00:54;;;;;;;2.83;2.40;;;7.00;99.90;;;;;;5052518;28;20211;-49
2023/02/19 04:03:29;;;;;;;3.47;2.70;;;6.90;99.90;;;;;;5039382;28;20246;-50
2023/02/19 04:06:01;;;;;;;2.73;2.53;;;6.80;99.90;;;;;;5031417;28;20225;-49
2023/02/19 04:08:29;;;;;;;3.13;2.90;;;6.70;99.90;;;;;;5022306;28;20206;-50
2023/02/19 04:10:58;;;;;;;3.23;2.67;;;6.80;99.90;;;;;;5031006;28;20268;-50
2023/02/19 04:13:30;;;;;;;2.93;2.73;;;6.80;99.90;;;;;;5036762;28;20216;-50
2023/02/19 04:16:01;;;;;;;3.33;3.03;;;6.80;99.90;;;;;;5031415;28;20220;-51
2023/02/19 04:18:33;;;;;;;2.97;2.53;;;6.70;99.90;;;;;;5015434;28;20208;-50
2023/02/19 04:21:02;;;;;;;3.13;1.97;;;6.80;99.90;;;;;;5035192;28;20265;-50
2023/02/19 04:23:33;;;;;;;2.73;2.53;;;6.80;99.90;;;;;;5034492;28;20207;-51
2023/02/19 04:26:03;;;;;;;3.77;2.40;;;6.80;99.90;;;;;;5024255;28;20255;-50
2023/02/19 04:28:30;;;;;;;2.37;2.23;;;6.80;99.90;;;;;;5039900;28;20205;-50
2023/02/19 04:30:57;;;;;;;2.77;2.53;;;6.80;99.90;;;;;;5031456;28;20211;-50
2023/02/19 04:33:24;;;;;;;2.57;1.90;;;6.80;99.90;;;;;;5021214;28;20206;-49
2023/02/19 04:35:52;;;;;;;4.20;2.47;;;6.90;99.90;;;;;;5032689;28;20232;-49
2023/02/19 04:38:20;;;;;;;2.43;2.23;;;6.80;99.90;;;;;;5026574;28;20201;-50
2023/02/19 04:40:47;;;;;;;2.77;2.33;;;6.80;99.90;;;;;;5028859;28;20269;-50
2023/02/19 04:43:14;;;;;;;5.23;2.80;;;6.80;99.90;;;;;;5047860;28;20677;-50
2023/02/19 04:45:41;;;;;;;3.20;2.23;;;6.80;99.90;;;;;;5039739;28;20228;-51
2023/02/19 04:48:09;;;;;;;2.10;1.90;;;6.80;99.90;;;;;;5042259;28;20253;-50
2023/02/19 04:50:38;;;;;;;5.10;2.13;;;6.80;99.90;;;;;;5032390;28;20664;-51
2023/02/19 04:53:07;;;;;;;2.80;2.27;;;6.80;99.90;;;;;;5043374;28;20196;-50
2023/02/19 04:55:37;;;;;;;6.30;2.73;;;6.80;99.90;;;;;;5040225;28;20216;-51
2023/02/19 04:58:04;;;;;;;2.27;2.10;;;6.80;99.90;;;;;;5035973;28;20278;-52
2023/02/19 05:00:32;;;;;;;2.27;1.83;;;6.80;99.90;;;;;;5030797;28;20204;-50
2023/02/19 05:02:59;;;;;;;3.93;2.20;;;6.80;99.90;;;;;;5031711;28;20194;-49
2023/02/19 05:05:26;;;;;;;2.53;2.40;;;6.80;99.90;;;;;;5030322;28;20709;-49
2023/02/19 05:07:54;;;;;;;1.87;1.77;;;6.80;99.90;;;;;;5032261;28;20721;-50
2023/02/19 05:10:22;;;;;;;2.33;2.10;;;6.80;99.90;;;;;;5034948;28;20200;-50
2023/02/19 05:12:49;;;;;;;3.87;2.30;;;6.80;99.90;;;;;;5030228;28;20206;-50
2023/02/19 05:15:16;;;;;;;4.10;2.60;;;6.80;99.90;;;;;;5026438;28;20224;-50
2023/02/19 05:17:43;;;;;;;4.07;3.23;;;6.80;99.90;;;;;;5037751;28;20216;-50
2023/02/19 05:20:11;;;;;;;3.77;2.90;;;6.90;99.90;;;;;;5039628;28;20197;-51
2023/02/19 05:22:38;;;;;;;3.97;3.77;;;6.90;99.90;;;;;;5030479;28;20224;-50
2023/02/19 05:25:06;;;;;;;3.43;2.90;;;6.90;99.90;;;;;;5029519;28;20224;-50
2023/02/19 05:27:37;;;;;;;4.40;2.70;;;6.90;99.90;;;;;;5029717;28;20197;-49
2023/02/19 05:30:05;;;;;;;3.30;3.03;;;6.90;99.90;;;;;;5047124;28;20273;-50
2023/02/19 05:32:32;;;;;;;4.00;3.70;;;6.80;99.90;;;;;;5046401;28;20199;-50
2023/02/19 05:34:59;;;;;;;3.63;3.33;;;6.80;99.90;;;;;;5057417;22;20238;-48
2023/02/19 05:37:25;;;;;;;3.13;2.87;;;6.80;99.90;;;;;;5033685;28;20266;-48
2023/02/19 05:39:52;;;;;;;4.97;4.47;;;6.80;99.90;;;;;;5033240;28;20208;-49
2023/02/19 05:42:19;;;;;;;3.70;3.40;;;6.70;99.90;;;;;;5033067;28;20199;-47
2023/02/19 05:44:52;;;;;;;11.60;3.93;;;6.90;99.90;;;;;;5031874;28;20266;-48
2023/02/19 05:47:19;;;;;;;4.03;3.73;;;6.90;99.90;;;;;;5030617;28;20207;-47
2023/02/19 05:49:46;;;;;;;5.80;5.30;;;6.90;99.90;;;;;;5040313;28;20263;-47
2023/02/19 05:52:13;;;;;;;3.40;3.10;;;6.90;99.90;;;;;;5046824;28;20277;-48
2023/02/19 05:54:40;;;;;;;3.13;2.90;;;7.00;99.90;;;;;;5052052;28;20278;-47
2023/02/19 05:57:07;;;;;;;3.57;3.23;;;7.00;99.90;;;;;;5024137;28;20640;-47
2023/02/19 05:59:34;;;;;;;2.63;2.43;;;6.90;99.90;;;;;;5030944;28;20274;-48
2023/02/19 06:02:02;;;;;;;4.03;3.73;;;6.90;99.90;;;;;;5030785;28;20665;-48
2023/02/19 06:04:29;;;;;;;4.57;3.80;;;6.80;99.90;;;;;;5040719;28;20242;-47
2023/02/19 06:06:56;;;;;;;4.17;3.73;;;6.90;99.90;;;;;;5032815;28;20647;-47
2023/02/19 06:09:23;;;;;;;17.83;11.83;;;6.80;99.90;;;;;;5032673;28;20257;-47
2023/02/19 06:11:50;;;;;;;6.00;4.33;;;6.80;99.90;;;;;;5032514;28;20218;-47
2023/02/19 06:14:17;;;;;;;5.57;4.23;;;6.80;99.90;;;;;;5030768;28;20593;-48
2023/02/19 06:16:44;;;;;;;8.03;4.53;;;6.70;99.90;;;;;;5030566;28;20267;-48
2023/02/19 06:19:13;;;;;;;15.43;9.83;;;6.70;99.90;;;;;;5038673;28;20278;-47
2023/02/19 06:21:40;;;;;;;105.33;59.07;;;6.70;99.90;;;;;;5028580;28;20199;-48
2023/02/19 06:24:08;;;;;;;31.37;22.00;;;6.70;99.90;;;;;;5043764;28;20268;-47
2023/02/19 06:26:35;;;;;;;17.87;13.73;;;6.80;99.90;;;;;;5032472;28;20204;-48
2023/02/19 06:29:02;;;;;;;23.70;15.07;;;6.70;99.90;;;;;;5027801;28;20202;-49
2023/02/19 06:31:29;;;;;;;9.80;7.63;;;6.90;99.90;;;;;;5030683;28;20216;-47
2023/02/19 06:33:56;;;;;;;9.97;8.57;;;6.60;99.90;;;;;;5043231;28;20200;-47
2023/02/19 06:36:25;;;;;;;8.93;8.00;;;6.60;99.90;;;;;;5040438;28;20196;-51
2023/02/19 06:38:52;;;;;;;8.70;6.90;;;6.60;99.90;;;;;;5031859;28;20234;-48
2023/02/19 06:41:19;;;;;;;5.97;5.47;;;6.60;99.90;;;;;;5031899;28;20280;-47
2023/02/19 06:43:46;;;;;;;4.30;3.73;;;6.70;99.90;;;;;;5031108;28;20562;-48
2023/02/19 06:46:13;;;;;;;3.90;3.53;;;6.70;99.90;;;;;;5028972;28;21450;-48
2023/02/19 06:48:41;;;;;;;3.93;3.57;;;6.80;99.90;;;;;;5038391;28;20255;-47
2023/02/19 06:51:11;;;;;;;6.50;5.27;;;6.80;99.90;;;;;;5042564;28;20261;-47
2023/02/19 06:53:40;;;;;;;5.37;4.87;;;6.80;99.90;;;;;;5050206;28;20207;-47
2023/02/19 06:56:21;;;;;;;5.47;4.27;;;6.90;99.90;;;;;;5031524;28;20307;-48
2023/02/19 06:58:48;;;;;;;5.67;4.00;;;6.80;99.90;;;;;;5026331;28;20223;-48
2023/02/19 07:01:15;;;;;;;11.00;7.88;;;6.90;99.90;;;;;;5029031;28;20453;-48
2023/02/19 07:03:42;;;;;;;6.13;4.73;;;6.80;99.90;;;;;;5030076;28;20222;-48
2023/02/19 07:06:09;;;;;;;8.30;5.03;;;6.80;99.90;;;;;;5030740;28;20222;-49
2023/02/19 07:08:36;;;;;;;4.47;4.07;;;6.80;99.90;;;;;;5038458;28;20614;-48
2023/02/19 07:11:05;;;;;;;6.10;4.33;;;6.70;99.90;;;;;;5041626;28;20218;-47
2023/02/19 07:13:32;;;;;;;4.43;4.00;;;6.70;99.90;;;;;;5037102;28;20218;-47
2023/02/19 07:16:00;;;;;;;4.00;3.70;;;6.70;99.90;;;;;;5031391;28;20300;-47
2023/02/19 07:18:29;;;;;;;4.70;3.90;;;6.70;99.90;;;;;;5032311;28;20215;-47
2023/02/19 07:21:01;;;;;;;6.57;5.60;;;6.80;99.90;;;;;;5022534;28;20632;-49
2023/02/19 07:23:28;;;;;;;6.70;4.73;;;6.70;99.90;;;;;;5033031;28;20546;-49
2023/02/19 07:25:55;;;;;;;5.33;4.70;;;6.70;99.90;;;;;;5038182;28;20223;-48
2023/02/19 07:28:24;;;;;;;5.00;4.60;;;6.70;99.90;;;;;;5042673;28;20201;-47
2023/02/19 07:30:51;;;;;;;6.60;4.93;;;6.80;99.90;;;;;;5050707;28;20207;-48
2023/02/19 07:33:18;;;;;;;5.43;4.93;;;6.80;99.90;;;;;;5029740;28;20204;-47
2023/02/19 07:35:46;;;;;;;4.60;4.20;;;6.80;99.90;;;;;;5035512;28;20331;-48
2023/02/19 07:38:15;;;;;;;4.33;3.97;;;6.90;99.90;;;;;;5034110;28;20738;-47
2023/02/19 07:40:42;;;;;;;4.07;3.77;;;6.90;99.90;;;;;;5027947;28;20205;-48
2023/02/19 07:43:09;;;;;;;3.50;3.20;;;6.90;99.90;;;;;;5029072;28;20692;-47
2023/02/19 07:45:37;;;;;;;4.17;3.67;;;6.90;99.90;;;;;;5029983;28;20228;-47
2023/02/19 07:48:05;;;;;;;4.03;3.30;;;6.90;99.90;;;;;;5035680;28;20546;-48
2023/02/19 07:50:32;;;;;;;4.43;3.93;;;6.90;99.90;;;;;;5030545;28;20247;-48
2023/02/19 07:52:58;;;;;;;7.37;6.50;;;7.00;99.90;;;;;;5024511;28;20234;-47
2023/02/19 07:55:26;;;;;;;9.37;7.83;;;7.00;99.90;;;;;;5028266;28;20297;-48
2023/02/19 07:57:53;;;;;;;8.00;7.20;;;7.10;99.90;;;;;;5031212;28;20259;-47
2023/02/19 08:00:19;;;;;;;5.57;5.07;;;7.10;99.90;;;;;;5043125;28;20265;-48
2023/02/19 08:02:59;;;;;;;7.70;5.43;;;7.20;99.90;;;;;;5030468;28;20203;-47
2023/02/19 08:05:26;;;;;;;5.97;5.10;;;7.20;99.90;;;;;;5037399;28;20216;-48
2023/02/19 08:07:54;;;;;;;7.63;6.37;;;7.10;99.90;;;;;;5037165;28;20268;-49
2023/02/19 08:13:21;;;;;;;12.70;10.27;;;7.20;99.90;;;;;;5031522;28;20671;-49
2023/02/19 08:15:50;;;;;;;15.93;9.73;;;7.20;99.90;;;;;;5043438;28;20846;-48
2023/02/19 08:18:20;;;;;;;12.07;9.07;;;7.10;99.90;;;;;;5030258;28;20304;-48
2023/02/19 08:20:48;;;;;;;9.83;8.30;;;7.10;99.90;;;;;;5031506;28;20209;-49
2023/02/19 08:23:15;;;;;;;9.30;6.13;;;7.20;99.90;;;;;;5032634;28;20212;-47
2023/02/19 08:25:42;;;;;;;6.43;5.83;;;7.20;99.90;;;;;;5038173;28;20286;-49
2023/02/19 08:28:11;;;;;;;4.63;4.23;;;7.20;99.90;;;;;;5029217;28;20529;-49
2023/02/19 08:30:39;;;;;;;5.37;4.97;;;7.20;99.90;;;;;;5033835;28;20216;-47
2023/02/19 08:33:07;;;;;;;5.23;4.83;;;7.20;99.90;;;;;;5032523;28;20200;-49
2023/02/19 08:35:36;;;;;;;4.70;4.17;;;7.20;99.90;;;;;;5026501;28;20604;-49
2023/02/19 08:38:05;;;;;;;7.13;5.80;;;7.30;99.90;;;;;;5029160;28;20231;-48
2023/02/19 08:40:33;;;;;;;6.87;6.17;;;7.30;99.90;;;;;;5029943;28;20209;-49
2023/02/19 08:43:03;;;;;;;5.60;5.10;;;7.30;99.90;;;;;;5029759;28;20631;-48
2023/02/19 08:45:30;;;;;;;5.93;5.43;;;7.40;99.90;;;;;;5027531;28;20238;-47
2023/02/19 08:47:57;;;;;;;6.23;5.63;;;7.50;99.90;;;;;;5039671;28;20195;-50
2023/02/19 08:50:25;;;;;;;5.60;5.10;;;7.60;99.90;;;;;;5029635;28;20552;-49
2023/02/19 08:52:54;;;;;;;7.37;5.63;;;7.60;99.90;;;;;;5029892;28;20198;-50
2023/02/19 08:55:21;;;;;;;6.40;4.93;;;7.60;99.90;;;;;;5029556;28;20224;-48
2023/02/19 08:57:48;;;;;;;7.57;6.33;;;7.60;99.90;;;;;;5027540;28;20256;-48
2023/02/19 09:00:16;;;;;;;8.20;7.53;;;7.70;99.90;;;;;;5031321;28;20194;-49
2023/02/19 09:02:44;;;;;;;7.17;6.67;;;7.90;99.90;;;;;;5028961;28;20206;-49
2023/02/19 09:05:12;;;;;;;8.23;7.53;;;7.90;99.90;;;;;;5029304;28;20221;-48
2023/02/19 09:07:39;;;;;;;8.53;7.33;;;8.00;99.90;;;;;;5033437;28;20208;-49
2023/02/19 09:10:10;;;;;;;7.70;7.07;;;8.10;99.90;;;;;;5033474;28;20282;-48
2023/02/19 09:12:39;;;;;;;8.27;7.47;;;8.10;99.90;;;;;;5032481;28;20204;-50
2023/02/19 09:15:07;;;;;;;9.40;8.37;;;8.10;99.90;;;;;;5029318;28;20222;-50
2023/02/19 09:17:34;;;;;;;10.37;7.90;;;8.30;99.90;;;;;;5049159;28;20203;-49
2023/02/19 09:20:01;;;;;;;9.43;8.52;;;8.30;99.90;;;;;;5028963;28;20919;-49
2023/02/19 09:22:28;;;;;;;9.17;7.43;;;8.50;99.90;;;;;;5028071;28;20275;-49
2023/02/19 09:24:55;;;;;;;10.60;7.27;;;8.60;99.90;;;;;;5047174;28;20227;-50
2023/02/19 09:27:23;;;;;;;10.87;6.63;;;8.70;99.90;;;;;;5046472;28;20557;-50
2023/02/19 09:29:50;;;;;;;7.23;6.60;;;8.70;99.90;;;;;;5032670;28;20209;-49
2023/02/19 09:32:17;;;;;;;9.83;8.83;;;8.70;99.90;;;;;;5030304;28;20204;-49
2023/02/19 09:34:44;;;;;;;11.47;7.77;;;8.80;99.90;;;;;;5026048;28;20264;-50
2023/02/19 09:37:11;;;;;;;9.47;8.57;;;8.80;99.90;;;;;;5022673;28;20290;-50
2023/02/19 09:39:38;;;;;;;11.20;9.00;;;8.80;99.90;;;;;;5025265;28;20648;-49
2023/02/19 09:42:14;;;;;;;12.17;10.93;;;8.90;99.90;;;;;;5032633;28;20613;-49
2023/02/19 09:44:46;;;;;;;19.27;17.47;;;9.00;99.90;;;;;;5031943;28;20360;-49
2023/02/19 09:47:17;;;;;;;9.97;9.13;;;9.00;99.90;;;;;;5043347;28;20194;-49
2023/02/19 09:49:50;;;;;;;16.90;14.07;;;9.10;99.90;;;;;;5027562;28;20203;-49
2023/02/19 09:52:24;;;;;;;11.10;9.47;;;9.10;99.90;;;;;;5025500;28;20279;-50
2023/02/19 09:54:56;;;;;;;10.90;8.83;;;9.10;99.90;;;;;;5033588;28;20592;-50
2023/02/19 09:57:25;;;;;;;8.33;7.20;;;9.10;99.90;;;;;;5043617;28;20199;-49
2023/02/19 09:59:59;;;;;;;2.30;2.10;;;9.10;99.90;;;;;;5028894;28;20224;-49
2023/02/19 10:02:29;;;;;;;1.70;1.60;;;9.10;99.90;;;;;;5025847;28;20281;-50
2023/02/19 10:04:58;;;;;;;7.30;6.60;;;9.20;99.90;;;;;;5029631;28;20216;-49
2023/02/19 10:07:28;;;;;;;11.63;10.55;;;9.30;99.90;;;;;;5035479;28;20469;-49
2023/02/19 10:09:59;;;;;;;10.10;9.13;;;9.40;99.90;;;;;;5032780;28;20195;-48
2023/02/19 10:12:28;;;;;;;14.57;13.07;;;9.40;99.90;;;;;;5031438;28;20211;-49
2023/02/19 10:15:02;;;;;;;9.50;8.60;;;9.40;99.90;;;;;;5041326;28;20219;-49
2023/02/19 10:17:33;;;;;;;7.50;5.73;;;9.40;99.90;;;;;;5039735;28;20238;-48
2023/02/19 10:20:03;;;;;;;14.47;13.07;;;9.30;99.90;;;;;;5030762;28;20223;-50
2023/02/19 10:22:31;;;;;;;19.33;15.63;;;9.40;99.90;;;;;;5032345;28;20202;-49
2023/02/19 10:24:58;;;;;;;11.17;10.07;;;9.50;99.90;;;;;;5031893;28;20278;-48
2023/02/19 10:27:29;;;;;;;6.87;6.17;;;9.50;99.90;;;;;;5028786;28;20203;-49
2023/02/19 10:29:58;;;;;;;6.97;5.40;;;9.60;99.90;;;;;;5030413;28;20715;-49
2023/02/19 10:32:28;;;;;;;7.50;5.47;;;9.70;99.90;;;;;;5027607;28;20207;-48
2023/02/19 10:35:12;;;;;;;4.60;4.20;;;9.80;99.90;;;;;;5046816;28;20323;-48
2023/02/19 10:37:44;;;;;;;4.63;4.23;;;9.90;99.90;;;;;;5041796;28;20582;-49
2023/02/19 10:40:18;;;;;;;3.53;3.23;;;10.00;99.90;;;;;;5047896;28;20287;-49
2023/02/19 10:42:47;;;;;;;2.87;2.67;;;10.10;99.90;;;;;;5032759;28;20199;-48
2023/02/19 10:45:21;;;;;;;3.60;3.30;;;10.10;99.90;;;;;;5031135;28;20306;-50
2023/02/19 10:47:49;;;;;;;3.73;3.43;;;10.20;99.90;;;;;;5030841;28;20212;-49
2023/02/19 10:50:25;;;;;;;2.80;2.60;;;10.20;99.90;;;;;;5043822;28;20665;-49
2023/02/19 10:52:54;;;;;;;2.00;1.90;;;10.20;99.90;;;;;;5052221;28;20206;-48
2023/02/19 10:55:28;;;;;;;1.00;1.00;;;10.30;99.90;;;;;;5043885;28;20337;-49
2023/02/19 10:57:55;;;;;;;0.80;0.60;;;10.50;99.90;;;;;;5043459;28;20673;-49
2023/02/19 11:00:28;;;;;;;1.00;0.80;;;10.70;99.90;;;;;;5034331;28;20199;-48
2023/02/19 11:03:19;;;;;;;1.13;0.80;;;10.70;99.90;;;;;;5033703;28;20205;-48
2023/02/19 11:06:01;;;;;;;1.23;0.90;;;10.70;99.90;;;;;;5051976;28;20846;-48
2023/02/19 11:08:29;;;;;;;1.40;1.30;;;10.70;99.90;;;;;;5052292;28;20213;-48
2023/02/19 11:10:56;;;;;;;1.37;1.37;;;10.80;99.90;;;;;;5037883;28;20204;-49
2023/02/19 11:13:29;;;;;;;1.40;1.30;;;10.80;99.90;;;;;;5043503;28;20664;-48
2023/02/19 11:15:59;;;;;;;0.70;0.70;;;10.90;99.90;;;;;;5036396;28;20228;-49
2023/02/19 11:18:28;;;;;;;0.90;0.90;;;10.90;99.90;;;;;;5035594;28;20220;-48
2023/02/19 11:20:57;;;;;;;0.60;0.60;;;10.90;99.90;;;;;;5031069;28;20255;-48
2023/02/19 11:23:28;;;;;;;0.83;0.83;;;11.00;99.90;;;;;;5031674;28;20255;-48
2023/02/19 11:25:57;;;;;;;0.83;0.70;;;11.10;99.90;;;;;;5034403;28;20221;-49
2023/02/19 11:28:31;;;;;;;0.67;0.63;;;11.10;99.90;;;;;;5031033;28;20282;-49
2023/02/19 11:31:23;;;;;;;0.70;0.70;;;11.00;99.90;;;;;;5037462;28;20254;-48
2023/02/19 11:33:56;;;;;;;1.50;0.70;;;11.00;99.90;;;;;;5031633;28;20641;-49
2023/02/19 11:36:29;;;;;;;0.70;0.70;;;11.10;99.90;;;;;;5062529;22;20273;-47
2023/02/19 11:38:57;;;;;;;84.80;27.47;;;11.10;99.90;;;;;;5044070;28;20221;-47
2023/02/19 11:41:44;;;;;;;308.13;98.57;;;11.20;99.90;;;;;;5044212;28;20206;-47
2023/02/19 11:44:29;;;;;;;8.77;3.77;;;11.20;99.90;;;;;;5039695;28;20208;-47
2023/02/19 11:47:07;;;;;;;9.47;7.03;;;11.20;99.90;;;;;;5027592;28;20205;-47
2023/02/19 11:49:47;;;;;;;5.17;4.77;;;11.10;99.90;;;;;;5021709;28;20612;-47
2023/02/19 11:52:27;;;;;;;2.73;1.70;;;11.10;99.90;;;;;;5017242;28;20264;-47
2023/02/19 11:55:02;;;;;;;0.70;0.70;;;11.10;99.90;;;;;;5002275;28;20236;-46
2023/02/19 11:57:42;;;;;;;0.83;0.83;;;11.10;99.90;;;;;;5009578;28;20675;-46
2023/02/19 12:00:26;;;;;;;6.90;4.53;;;11.20;99.90;;;;;;5023918;28;20311;-46
2023/02/19 12:03:23;;;;;;;2.43;2.33;;;11.20;99.90;;;;;;5013974;28;20606;-47
2023/02/19 12:06:04;;;;;;;2.50;1.67;;;11.40;99.90;;;;;;5010530;28;20228;-48
2023/02/19 12:08:48;;;;;;;0.80;0.80;;;11.40;99.90;;;;;;5025682;28;20204;-48
2023/02/19 12:11:35;;;;;;;2.97;1.40;;;11.40;99.90;;;;;;5011148;28;20256;-47
2023/02/19 12:14:27;;;;;;;1.97;1.40;;;11.40;99.90;;;;;;5011906;28;20289;-46
2023/02/19 12:17:01;;;;;;;1.03;1.03;;;11.50;99.90;;;;;;5011921;28;20213;-47
2023/02/19 12:19:45;;;;;;;1.57;1.40;;;11.50;99.90;;;;;;5014297;28;20313;-47
2023/02/19 12:22:27;;;;;;;1.73;1.40;;;11.50;99.90;;;;;;5008859;28;20251;-47
2023/02/19 12:25:27;;;;;;;0.90;0.90;;;11.40;99.90;;;;;;5019116;28;20569;-46
2023/02/19 12:28:18;;;;;;;2.70;1.60;;;11.50;99.90;;;;;;5016647;28;20283;-47
2023/02/19 12:31:27;;;;;;;1.10;1.00;;;11.40;99.90;;;;;;5018306;28;20310;-47
2023/02/19 12:34:30;;;;;;;1.23;1.23;;;11.50;99.90;;;;;;4997342;28;20442;-46
2023/02/19 12:37:11;;;;;;;1.30;1.23;;;11.50;99.90;;;;;;4986712;28;20200;-47
2023/02/19 12:39:46;;;;;;;1.03;1.03;;;11.50;99.90;;;;;;5007943;28;20635;-47
2023/02/19 12:42:25;;;;;;;1.40;1.40;;;11.50;99.90;;;;;;5011128;28;20201;-47
2023/02/19 12:44:56;;;;;;;1.00;1.00;;;11.50;99.90;;;;;;5015391;28;20289;-46
2023/02/19 12:47:28;;;;;;;1.77;1.50;;;11.40;99.90;;;;;;5011538;28;20205;-47
2023/02/19 12:50:08;;;;;;;0.80;0.80;;;11.30;99.90;;;;;;5009294;28;20198;-47
2023/02/19 12:52:43;;;;;;;1.73;1.20;;;11.30;99.90;;;;;;5014717;28;20208;-47
2023/02/19 12:55:21;;;;;;;0.90;0.90;;;11.30;99.90;;;;;;5012854;28;20222;-47
2023/02/19 12:57:48;;;;;;;0.63;0.63;;;11.20;99.90;;;;;;5012741;28;20347;-47
2023/02/19 13:00:27;;;;;;;0.90;0.90;;;11.20;99.90;;;;;;5015668;28;20216;-47
2023/02/19 13:03:01;;;;;;;0.60;0.60;;;11.20;99.90;;;;;;5019011;28;20623;-47
2023/02/19 13:05:38;;;;;;;0.83;0.83;;;11.10;99.90;;;;;;5016265;28;20222;-49
2023/02/19 13:08:12;;;;;;;0.50;0.50;;;11.00;99.90;;;;;;5003514;28;20255;-49
2023/02/19 13:10:44;;;;;;;0.60;0.60;;;10.90;99.90;;;;;;5025248;28;20207;-49
2023/02/19 13:13:18;;;;;;;0.40;0.40;;;10.90;99.90;;;;;;5017051;28;20263;-47
2023/02/19 13:15:48;;;;;;;0.30;0.30;;;10.90;99.90;;;;;;5010095;28;20266;-47
2023/02/19 13:18:20;;;;;;;0.37;0.37;;;10.80;99.90;;;;;;5015413;28;20209;-47
2023/02/19 13:20:50;;;;;;;0.20;0.20;;;10.80;99.90;;;;;;5018742;28;20649;-47
2023/02/19 13:26:29;;;;;;;0.73;0.40;;;10.80;99.90;;;;;;5016126;28;20227;-47
2023/02/19 13:29:14;;;;;;;0.30;0.30;;;10.80;99.90;;;;;;5015523;28;20261;-46
2023/02/19 13:32:04;;;;;;;0.30;0.30;;;10.90;99.90;;;;;;5017390;28;20662;-46
2023/02/19 13:34:46;;;;;;;0.30;0.30;;;11.00;99.90;;;;;;5008894;28;20206;-46
2023/02/19 13:37:14;;;;;;;0.30;0.30;;;11.10;99.90;;;;;;5015118;28;20690;-47
2023/02/19 13:39:49;;;;;;;0.50;0.50;;;11.10;99.90;;;;;;5017121;28;20221;-47